sensor_id;sensor_type;location;lat;lon;timestamp;pressure;altitude;pressure_sealevel;temperature;humidity
3654;BME280;70277;54.302;10.064;2023-12-29T00:01:22;99838.38;;;9.24;87.32
3654;BME280;70277;54.302;10.064;2023-12-29T00:03:48;99835.50;;;9.51;87.81
3654;BME280;70277;54.302;10.064;2023-12-29T00:06:15;99828.94;;;9.26;87.86
3654;BME280;70277;54.302;10.064;2023-12-29T00:08:42;99806.56;;;9.36;87.40
3654;BME280;70277;54.302;10.064;2023-12-29T00:11:21;99803.09;;;9.41;86.53
3654;BME280;70277;54.302;10.064;2023-12-29T00:13:48;99813.31;;;9.39;86.58
3654;BME280;70277;54.302;10.064;2023-12-29T00:16:15;99820.91;;;9.42;85.92
3654;BME280;70277;54.302;10.064;2023-12-29T00:18:42;99815.22;;;9.43;85.78
3654;BME280;70277;54.302;10.064;2023-12-29T00:21:11;99819.84;;;9.48;85.17
3654;BME280;70277;54.302;10.064;2023-12-29T00:23:37;99832.59;;;9.73;85.24
3654;BME280;70277;54.302;10.064;2023-12-29T00:26:04;99828.25;;;9.56;84.02
3654;BME280;70277;54.302;10.064;2023-12-29T00:28:30;99828.97;;;9.37;83.92
3654;BME280;70277;54.302;10.064;2023-12-29T00:30:57;99832.25;;;9.44;83.55
3654;BME280;70277;54.302;10.064;2023-12-29T00:33:28;99837.22;;;9.72;82.99
3654;BME280;70277;54.302;10.064;2023-12-29T00:35:56;99844.13;;;9.43;83.01
3654;BME280;70277;54.302;10.064;2023-12-29T00:38:23;99839.81;;;9.52;84.19
3654;BME280;70277;54.302;10.064;2023-12-29T00:40:49;99830.09;;;9.46;84.80
3654;BME280;70277;54.302;10.064;2023-12-29T00:43:16;99821.97;;;9.41;85.98
3654;BME280;70277;54.302;10.064;2023-12-29T00:45:44;99816.00;;;9.33;85.78
3654;BME280;70277;54.302;10.064;2023-12-29T00:48:11;99821.44;;;9.44;85.64
3654;BME280;70277;54.302;10.064;2023-12-29T00:50:37;99810.88;;;9.37;85.92
3654;BME280;70277;54.302;10.064;2023-12-29T00:53:04;99819.13;;;9.10;86.81
3654;BME280;70277;54.302;10.064;2023-12-29T00:55:30;99816.44;;;9.15;87.14
3654;BME280;70277;54.302;10.064;2023-12-29T00:57:57;99799.75;;;9.28;87.18
3654;BME280;70277;54.302;10.064;2023-12-29T01:00:24;99792.56;;;8.92;88.23
3654;BME280;70277;54.302;10.064;2023-12-29T01:02:50;99794.78;;;9.05;88.66
3654;BME280;70277;54.302;10.064;2023-12-29T01:05:17;99787.25;;;9.07;88.57
3654;BME280;70277;54.302;10.064;2023-12-29T01:07:44;99791.56;;;9.08;89.07
3654;BME280;70277;54.302;10.064;2023-12-29T01:10:10;99786.16;;;9.03;89.57
3654;BME280;70277;54.302;10.064;2023-12-29T01:12:37;99798.00;;;9.02;89.83
3654;BME280;70277;54.302;10.064;2023-12-29T01:15:04;99783.25;;;9.15;89.17
3654;BME280;70277;54.302;10.064;2023-12-29T01:17:31;99768.41;;;9.17;89.20
3654;BME280;70277;54.302;10.064;2023-12-29T01:19:57;99790.97;;;8.96;90.00
3654;BME280;70277;54.302;10.064;2023-12-29T01:22:24;99791.56;;;9.03;89.33
3654;BME280;70277;54.302;10.064;2023-12-29T01:24:50;99804.06;;;9.24;89.70
3654;BME280;70277;54.302;10.064;2023-12-29T01:27:17;99791.66;;;9.28;89.07
3654;BME280;70277;54.302;10.064;2023-12-29T01:29:44;99782.41;;;9.09;89.98
3654;BME280;70277;54.302;10.064;2023-12-29T01:32:10;99789.72;;;9.14;90.18
3654;BME280;70277;54.302;10.064;2023-12-29T01:34:37;99792.22;;;9.30;88.72
3654;BME280;70277;54.302;10.064;2023-12-29T01:37:04;99781.38;;;9.20;88.72
3654;BME280;70277;54.302;10.064;2023-12-29T01:39:31;99775.53;;;9.44;88.78
3654;BME280;70277;54.302;10.064;2023-12-29T01:41:59;99787.69;;;9.41;88.85
3654;BME280;70277;54.302;10.064;2023-12-29T01:44:25;99782.56;;;9.45;88.44
3654;BME280;70277;54.302;10.064;2023-12-29T01:46:59;99778.81;;;9.56;87.45
3654;BME280;70277;54.302;10.064;2023-12-29T01:49:26;99772.88;;;9.59;87.33
3654;BME280;70277;54.302;10.064;2023-12-29T01:51:58;99769.06;;;9.50;87.53
3654;BME280;70277;54.302;10.064;2023-12-29T01:54:32;99786.34;;;9.44;87.00
3654;BME280;70277;54.302;10.064;2023-12-29T01:57:00;99773.94;;;9.48;86.52
3654;BME280;70277;54.302;10.064;2023-12-29T01:59:28;99756.44;;;9.81;85.74
3654;BME280;70277;54.302;10.064;2023-12-29T02:01:55;99761.50;;;9.52;85.78
3654;BME280;70277;54.302;10.064;2023-12-29T02:04:24;99748.22;;;9.40;86.10
3654;BME280;70277;54.302;10.064;2023-12-29T02:06:51;99750.69;;;9.52;85.71
3654;BME280;70277;54.302;10.064;2023-12-29T02:09:18;99755.03;;;9.48;85.31
3654;BME280;70277;54.302;10.064;2023-12-29T02:11:46;99744.28;;;9.78;84.56
3654;BME280;70277;54.302;10.064;2023-12-29T02:14:14;99746.41;;;9.56;84.99
3654;BME280;70277;54.302;10.064;2023-12-29T02:19:50;99737.53;;;9.71;85.16
3654;BME280;70277;54.302;10.064;2023-12-29T02:22:18;99750.22;;;9.70;85.04
3654;BME280;70277;54.302;10.064;2023-12-29T02:24:51;99746.16;;;9.68;85.13
3654;BME280;70277;54.302;10.064;2023-12-29T02:27:35;99728.59;;;9.75;85.46
3654;BME280;70277;54.302;10.064;2023-12-29T02:32:47;99725.59;;;9.67;85.74
3654;BME280;70277;54.302;10.064;2023-12-29T02:35:23;99709.13;;;9.53;84.87
3654;BME280;70277;54.302;10.064;2023-12-29T02:37:51;99722.13;;;9.71;84.59
3654;BME280;70277;54.302;10.064;2023-12-29T02:40:18;99736.19;;;9.84;84.07
3654;BME280;70277;54.302;10.064;2023-12-29T02:42:49;99719.16;;;9.83;84.08
3654;BME280;70277;54.302;10.064;2023-12-29T02:45:16;99732.41;;;9.79;83.51
3654;BME280;70277;54.302;10.064;2023-12-29T02:47:43;99702.66;;;9.74;84.44
3654;BME280;70277;54.302;10.064;2023-12-29T02:50:11;99709.97;;;9.99;83.21
3654;BME280;70277;54.302;10.064;2023-12-29T02:52:37;99718.31;;;9.72;83.23
3654;BME280;70277;54.302;10.064;2023-12-29T02:55:04;99700.50;;;9.82;82.96
3654;BME280;70277;54.302;10.064;2023-12-29T02:57:31;99691.88;;;9.95;83.74
3654;BME280;70277;54.302;10.064;2023-12-29T02:59:57;99693.50;;;10.01;82.82
3654;BME280;70277;54.302;10.064;2023-12-29T03:02:24;99684.84;;;9.68;83.00
3654;BME280;70277;54.302;10.064;2023-12-29T03:04:51;99699.44;;;9.67;82.85
3654;BME280;70277;54.302;10.064;2023-12-29T03:07:17;99695.94;;;9.82;82.16
3654;BME280;70277;54.302;10.064;2023-12-29T03:09:44;99691.31;;;9.93;82.08
3654;BME280;70277;54.302;10.064;2023-12-29T03:12:10;99699.16;;;9.69;81.67
3654;BME280;70277;54.302;10.064;2023-12-29T03:14:37;99677.53;;;9.74;81.53
3654;BME280;70277;54.302;10.064;2023-12-29T03:17:03;99687.53;;;9.78;81.24
3654;BME280;70277;54.302;10.064;2023-12-29T03:19:30;99670.53;;;9.83;80.73
3654;BME280;70277;54.302;10.064;2023-12-29T03:21:57;99688.63;;;10.03;80.42
3654;BME280;70277;54.302;10.064;2023-12-29T03:24:23;99666.44;;;10.21;79.84
3654;BME280;70277;54.302;10.064;2023-12-29T03:26:50;99668.34;;;10.16;78.97
3654;BME280;70277;54.302;10.064;2023-12-29T03:29:16;99684.03;;;10.09;79.45
3654;BME280;70277;54.302;10.064;2023-12-29T03:31:43;99673.19;;;10.14;78.93
3654;BME280;70277;54.302;10.064;2023-12-29T03:34:09;99688.34;;;10.05;79.05
3654;BME280;70277;54.302;10.064;2023-12-29T03:36:36;99681.06;;;10.20;78.91
3654;BME280;70277;54.302;10.064;2023-12-29T03:39:03;99672.38;;;10.39;78.50
3654;BME280;70277;54.302;10.064;2023-12-29T03:41:29;99678.34;;;10.36;78.92
3654;BME280;70277;54.302;10.064;2023-12-29T03:43:56;99661.31;;;10.35;79.75
3654;BME280;70277;54.302;10.064;2023-12-29T03:46:22;99638.84;;;10.35;79.44
3654;BME280;70277;54.302;10.064;2023-12-29T03:48:49;99641.00;;;10.22;79.64
3654;BME280;70277;54.302;10.064;2023-12-29T03:51:16;99644.25;;;10.24;79.39
3654;BME280;70277;54.302;10.064;2023-12-29T03:53:43;99652.91;;;10.32;79.97
3654;BME280;70277;54.302;10.064;2023-12-29T03:56:17;99659.38;;;10.25;79.79
3654;BME280;70277;54.302;10.064;2023-12-29T03:58:45;99661.03;;;10.11;79.85
3654;BME280;70277;54.302;10.064;2023-12-29T04:01:12;99669.69;;;10.34;80.44
3654;BME280;70277;54.302;10.064;2023-12-29T04:03:40;99647.50;;;10.37;80.09
3654;BME280;70277;54.302;10.064;2023-12-29T04:06:07;99647.22;;;10.23;79.75
3654;BME280;70277;54.302;10.064;2023-12-29T04:08:34;99643.94;;;10.52;79.66
3654;BME280;70277;54.302;10.064;2023-12-29T04:11:01;99641.88;;;9.97;80.65
3654;BME280;70277;54.302;10.064;2023-12-29T04:13:28;99633.44;;;10.24;80.32
3654;BME280;70277;54.302;10.064;2023-12-29T04:15:55;99626.97;;;10.05;80.77
3654;BME280;70277;54.302;10.064;2023-12-29T04:18:23;99624.81;;;10.33;79.83
3654;BME280;70277;54.302;10.064;2023-12-29T04:20:50;99638.59;;;10.16;80.38
3654;BME280;70277;54.302;10.064;2023-12-29T04:23:17;99630.75;;;10.19;80.40
3654;BME280;70277;54.302;10.064;2023-12-29T04:25:43;99631.28;;;10.16;80.23
3654;BME280;70277;54.302;10.064;2023-12-29T04:28:10;99642.38;;;10.20;80.15
3654;BME280;70277;54.302;10.064;2023-12-29T04:30:37;99644.25;;;10.14;80.36
3654;BME280;70277;54.302;10.064;2023-12-29T04:33:03;99642.09;;;10.16;79.70
3654;BME280;70277;54.302;10.064;2023-12-29T04:35:30;99639.94;;;10.18;80.22
3654;BME280;70277;54.302;10.064;2023-12-29T04:37:57;99656.72;;;10.05;80.08
3654;BME280;70277;54.302;10.064;2023-12-29T04:40:23;99645.34;;;10.08;79.33
3654;BME280;70277;54.302;10.064;2023-12-29T04:42:50;99643.16;;;10.25;79.52
3654;BME280;70277;54.302;10.064;2023-12-29T04:45:17;99628.06;;;10.09;79.25
3654;BME280;70277;54.302;10.064;2023-12-29T04:47:44;99633.75;;;10.08;80.07
3654;BME280;70277;54.302;10.064;2023-12-29T04:50:10;99626.69;;;10.17;79.62
3654;BME280;70277;54.302;10.064;2023-12-29T04:52:37;99653.97;;;10.25;79.94
3654;BME280;70277;54.302;10.064;2023-12-29T04:55:04;99643.19;;;10.10;80.52
3654;BME280;70277;54.302;10.064;2023-12-29T04:57:30;99649.16;;;10.07;80.87
3654;BME280;70277;54.302;10.064;2023-12-29T04:59:57;99644.31;;;9.94;81.04
3654;BME280;70277;54.302;10.064;2023-12-29T05:02:23;99652.66;;;10.08;81.43
3654;BME280;70277;54.302;10.064;2023-12-29T05:04:50;99644.56;;;9.87;80.59
3654;BME280;70277;54.302;10.064;2023-12-29T05:07:17;99653.72;;;10.17;80.50
3654;BME280;70277;54.302;10.064;2023-12-29T05:09:43;99644.84;;;10.01;80.17
3654;BME280;70277;54.302;10.064;2023-12-29T05:12:10;99641.31;;;9.95;79.98
3654;BME280;70277;54.302;10.064;2023-12-29T05:14:36;99637.81;;;9.95;80.05
3654;BME280;70277;54.302;10.064;2023-12-29T05:17:03;99639.44;;;9.96;80.09
3654;BME280;70277;54.302;10.064;2023-12-29T05:19:29;99646.44;;;10.02;80.16
3654;BME280;70277;54.302;10.064;2023-12-29T05:21:56;99641.06;;;9.87;79.90
3654;BME280;70277;54.302;10.064;2023-12-29T05:24:23;99642.41;;;9.84;79.87
3654;BME280;70277;54.302;10.064;2023-12-29T05:26:49;99654.84;;;9.80;79.07
3654;BME280;70277;54.302;10.064;2023-12-29T05:29:16;99634.03;;;9.96;78.37
3654;BME280;70277;54.302;10.064;2023-12-29T05:31:42;99639.44;;;10.01;78.38
3654;BME280;70277;54.302;10.064;2023-12-29T05:34:09;99644.00;;;10.16;77.31
3654;BME280;70277;54.302;10.064;2023-12-29T05:36:36;99648.06;;;9.88;78.61
3654;BME280;70277;54.302;10.064;2023-12-29T05:39:03;99653.75;;;10.01;78.80
3654;BME280;70277;54.302;10.064;2023-12-29T05:41:30;99639.44;;;9.80;79.29
3654;BME280;70277;54.302;10.064;2023-12-29T05:43:57;99642.66;;;9.88;78.88
3654;BME280;70277;54.302;10.064;2023-12-29T05:46:24;99640.53;;;9.74;77.62
3654;BME280;70277;54.302;10.064;2023-12-29T05:48:51;99630.22;;;10.02;77.38
3654;BME280;70277;54.302;10.064;2023-12-29T05:51:19;99646.44;;;10.02;77.12
3654;BME280;70277;54.302;10.064;2023-12-29T05:53:46;99652.41;;;9.89;77.08
3654;BME280;70277;54.302;10.064;2023-12-29T05:56:13;99653.75;;;9.86;77.17
3654;BME280;70277;54.302;10.064;2023-12-29T05:58:41;99638.88;;;10.04;77.15
3654;BME280;70277;54.302;10.064;2023-12-29T06:01:09;99654.56;;;9.87;77.17
3654;BME280;70277;54.302;10.064;2023-12-29T06:03:36;99652.41;;;9.89;77.30
3654;BME280;70277;54.302;10.064;2023-12-29T06:06:02;99653.47;;;9.88;76.94
3654;BME280;70277;54.302;10.064;2023-12-29T06:08:29;99657.81;;;9.89;77.05
3654;BME280;70277;54.302;10.064;2023-12-29T06:10:56;99649.16;;;9.82;77.77
3654;BME280;70277;54.302;10.064;2023-12-29T06:13:22;99672.16;;;9.79;77.17
3654;BME280;70277;54.302;10.064;2023-12-29T06:15:49;99650.50;;;9.69;78.13
3654;BME280;70277;54.302;10.064;2023-12-29T06:18:16;99658.06;;;9.56;77.54
3654;BME280;70277;54.302;10.064;2023-12-29T06:20:42;99666.44;;;9.55;77.24
3654;BME280;70277;54.302;10.064;2023-12-29T06:23:09;99660.97;;;9.19;78.55
3654;BME280;70277;54.302;10.064;2023-12-29T06:25:35;99664.53;;;9.35;78.73
3654;BME280;70277;54.302;10.064;2023-12-29T06:28:05;99682.63;;;9.45;78.25
3654;BME280;70277;54.302;10.064;2023-12-29T06:30:33;99677.25;;;9.50;77.48
3654;BME280;70277;54.302;10.064;2023-12-29T06:33:00;99677.22;;;9.40;76.76
3654;BME280;70277;54.302;10.064;2023-12-29T06:35:27;99681.03;;;9.85;76.29
3654;BME280;70277;54.302;10.064;2023-12-29T06:37:53;99684.84;;;9.68;76.26
3654;BME280;70277;54.302;10.064;2023-12-29T06:40:20;99690.22;;;9.78;75.86
3654;BME280;70277;54.302;10.064;2023-12-29T06:42:46;99699.13;;;9.64;75.50
3654;BME280;70277;54.302;10.064;2023-12-29T06:45:13;99705.38;;;9.79;75.53
3654;BME280;70277;54.302;10.064;2023-12-29T06:47:39;99708.09;;;9.79;75.14
3654;BME280;70277;54.302;10.064;2023-12-29T06:50:07;99721.59;;;9.90;75.08
3654;BME280;70277;54.302;10.064;2023-12-29T06:52:35;99700.78;;;9.90;74.01
3654;BME280;70277;54.302;10.064;2023-12-29T06:55:02;99715.09;;;9.80;74.12
3654;BME280;70277;54.302;10.064;2023-12-29T06:57:29;99705.91;;;9.76;73.61
3654;BME280;70277;54.302;10.064;2023-12-29T06:59:56;99713.72;;;9.73;73.81
3654;BME280;70277;54.302;10.064;2023-12-29T07:02:22;99699.97;;;9.74;73.82
3654;BME280;70277;54.302;10.064;2023-12-29T07:04:49;99708.91;;;9.85;74.13
3654;BME280;70277;54.302;10.064;2023-12-29T07:07:15;99714.81;;;9.87;73.37
3654;BME280;70277;54.302;10.064;2023-12-29T07:09:42;99714.03;;;9.97;73.32
3654;BME280;70277;54.302;10.064;2023-12-29T07:12:09;99718.34;;;9.88;73.02
3654;BME280;70277;54.302;10.064;2023-12-29T07:14:36;99713.22;;;9.96;73.18
3654;BME280;70277;54.302;10.064;2023-12-29T07:17:03;99710.50;;;10.01;73.44
3654;BME280;70277;54.302;10.064;2023-12-29T07:19:29;99714.28;;;10.11;73.65
3654;BME280;70277;54.302;10.064;2023-12-29T07:22:04;99732.94;;;9.87;73.68
3654;BME280;70277;54.302;10.064;2023-12-29T07:24:32;99721.59;;;9.95;73.76
3654;BME280;70277;54.302;10.064;2023-12-29T07:26:59;99715.66;;;9.98;74.10
3654;BME280;70277;54.302;10.064;2023-12-29T07:29:26;99727.00;;;9.90;74.10
3654;BME280;70277;54.302;10.064;2023-12-29T07:31:53;99715.63;;;9.72;75.25
3654;BME280;70277;54.302;10.064;2023-12-29T07:34:20;99721.59;;;10.05;75.51
3654;BME280;70277;54.302;10.064;2023-12-29T07:36:47;99731.88;;;9.83;75.32
3654;BME280;70277;54.302;10.064;2023-12-29T07:39:14;99720.50;;;9.80;74.67
3654;BME280;70277;54.302;10.064;2023-12-29T07:41:41;99717.00;;;9.95;74.41
3654;BME280;70277;54.302;10.064;2023-12-29T07:44:12;99742.38;;;9.84;74.88
3654;BME280;70277;54.302;10.064;2023-12-29T07:46:39;99729.66;;;9.64;76.07
3654;BME280;70277;54.302;10.064;2023-12-29T07:49:06;99740.44;;;9.54;76.69
3654;BME280;70277;54.302;10.064;2023-12-29T07:51:34;99735.88;;;9.60;77.13
3654;BME280;70277;54.302;10.064;2023-12-29T07:54:00;99726.94;;;9.64;76.62
3654;BME280;70277;54.302;10.064;2023-12-29T07:56:27;99728.59;;;9.65;76.11
3654;BME280;70277;54.302;10.064;2023-12-29T07:58:54;99743.19;;;9.85;75.17
3654;BME280;70277;54.302;10.064;2023-12-29T08:01:20;99724.56;;;10.03;74.34
3654;BME280;70277;54.302;10.064;2023-12-29T08:03:47;99735.63;;;9.71;73.37
3654;BME280;70277;54.302;10.064;2023-12-29T08:06:13;99747.81;;;9.89;73.41
3654;BME280;70277;54.302;10.064;2023-12-29T08:08:40;99741.06;;;10.07;72.36
3654;BME280;70277;54.302;10.064;2023-12-29T08:11:14;99723.22;;;9.86;71.92
3654;BME280;70277;54.302;10.064;2023-12-29T08:13:46;99732.69;;;9.88;72.15
3654;BME280;70277;54.302;10.064;2023-12-29T08:16:13;99731.88;;;9.98;71.46
3654;BME280;70277;54.302;10.064;2023-12-29T08:18:39;99736.47;;;9.97;71.62
3654;BME280;70277;54.302;10.064;2023-12-29T08:21:06;99736.72;;;9.86;71.95
3654;BME280;70277;54.302;10.064;2023-12-29T08:23:32;99728.63;;;10.16;70.98
3654;BME280;70277;54.302;10.064;2023-12-29T08:25:59;99724.81;;;9.82;71.59
3654;BME280;70277;54.302;10.064;2023-12-29T08:28:26;99735.66;;;9.97;71.97
3654;BME280;70277;54.302;10.064;2023-12-29T08:30:53;99727.53;;;9.87;72.01
3654;BME280;70277;54.302;10.064;2023-12-29T08:33:19;99724.28;;;9.79;71.73
3654;BME280;70277;54.302;10.064;2023-12-29T08:35:46;99756.72;;;9.90;71.56
3654;BME280;70277;54.302;10.064;2023-12-29T08:38:12;99740.53;;;10.15;71.08
3654;BME280;70277;54.302;10.064;2023-12-29T08:40:40;99733.19;;;9.75;71.77
3654;BME280;70277;54.302;10.064;2023-12-29T08:43:07;99744.84;;;9.86;71.76
3654;BME280;70277;54.302;10.064;2023-12-29T08:45:34;99756.72;;;9.90;72.06
3654;BME280;70277;54.302;10.064;2023-12-29T08:48:02;99748.63;;;9.95;71.56
3654;BME280;70277;54.302;10.064;2023-12-29T08:50:30;99767.00;;;9.83;71.43
3654;BME280;70277;54.302;10.064;2023-12-29T08:52:56;99746.44;;;9.87;71.79
3654;BME280;70277;54.302;10.064;2023-12-29T08:55:23;99747.00;;;10.14;71.03
3654;BME280;70277;54.302;10.064;2023-12-29T08:57:49;99749.72;;;10.19;71.09
3654;BME280;70277;54.302;10.064;2023-12-29T09:00:16;99746.19;;;10.19;71.92
3654;BME280;70277;54.302;10.064;2023-12-29T09:02:43;99746.72;;;10.06;71.61
3654;BME280;70277;54.302;10.064;2023-12-29T09:05:11;99743.19;;;9.85;72.12
3654;BME280;70277;54.302;10.064;2023-12-29T09:07:37;99748.63;;;10.05;71.69
3654;BME280;70277;54.302;10.064;2023-12-29T09:10:04;99742.13;;;9.70;71.53
3654;BME280;70277;54.302;10.064;2023-12-29T09:12:34;99756.19;;;9.93;72.23
3654;BME280;70277;54.302;10.064;2023-12-29T09:15:01;99767.56;;;10.00;71.71
3654;BME280;70277;54.302;10.064;2023-12-29T09:17:28;99765.91;;;9.89;72.24
3654;BME280;70277;54.302;10.064;2023-12-29T09:19:55;99781.31;;;9.93;71.80
3654;BME280;70277;54.302;10.064;2023-12-29T09:22:35;99769.44;;;9.94;71.68
3654;BME280;70277;54.302;10.064;2023-12-29T09:25:02;99778.91;;;10.17;71.16
3654;BME280;70277;54.302;10.064;2023-12-29T09:27:28;99782.94;;;9.99;71.46
3654;BME280;70277;54.302;10.064;2023-12-29T09:29:55;99767.56;;;10.10;72.27
3654;BME280;70277;54.302;10.064;2023-12-29T09:32:21;99771.88;;;9.86;71.93
3654;BME280;70277;54.302;10.064;2023-12-29T09:34:48;99765.41;;;10.12;71.44
3654;BME280;70277;54.302;10.064;2023-12-29T09:37:14;99765.94;;;10.09;71.73
3654;BME280;70277;54.302;10.064;2023-12-29T09:39:41;99769.44;;;10.20;71.28
3654;BME280;70277;54.302;10.064;2023-12-29T09:42:09;99771.59;;;10.02;72.23
3654;BME280;70277;54.302;10.064;2023-12-29T09:44:39;99781.63;;;10.12;72.18
3654;BME280;70277;54.302;10.064;2023-12-29T09:47:08;99778.59;;;9.93;72.13
3654;BME280;70277;54.302;10.064;2023-12-29T09:49:40;99768.09;;;10.07;72.70
3654;BME280;70277;54.302;10.064;2023-12-29T09:52:07;99779.44;;;9.94;72.89
3654;BME280;70277;54.302;10.064;2023-12-29T09:54:36;99764.03;;;10.25;71.34
3654;BME280;70277;54.302;10.064;2023-12-29T09:57:06;99757.31;;;10.28;71.57
3654;BME280;70277;54.302;10.064;2023-12-29T09:59:35;99752.97;;;10.32;70.79
3654;BME280;70277;54.302;10.064;2023-12-29T10:02:04;99748.13;;;10.34;71.18
3654;BME280;70277;54.302;10.064;2023-12-29T10:04:31;99753.50;;;10.18;70.63
3654;BME280;70277;54.302;10.064;2023-12-29T10:07:02;99750.81;;;10.54;70.22
3654;BME280;70277;54.302;10.064;2023-12-29T10:09:32;99756.75;;;10.41;69.82
3654;BME280;70277;54.302;10.064;2023-12-29T10:12:02;99752.66;;;10.69;69.00
3654;BME280;70277;54.302;10.064;2023-12-29T10:14:48;99752.97;;;10.62;68.70
3654;BME280;70277;54.302;10.064;2023-12-29T10:23:41;99741.81;;;10.79;68.18
3654;BME280;70277;54.302;10.064;2023-12-29T10:26:10;99739.69;;;10.56;69.40
3654;BME280;70277;54.302;10.064;2023-12-29T10:28:37;99742.69;;;10.59;69.07
3654;BME280;70277;54.302;10.064;2023-12-29T10:31:04;99733.97;;;10.73;69.41
3654;BME280;70277;54.302;10.064;2023-12-29T10:33:31;99741.41;;;11.16;67.97
3654;BME280;70277;54.302;10.064;2023-12-29T10:36:00;99736.06;;;10.96;67.38
3654;BME280;70277;54.302;10.064;2023-12-29T10:38:30;99741.66;;;11.20;67.03
3654;BME280;70277;54.302;10.064;2023-12-29T10:41:18;99742.28;;;11.61;66.21
3654;BME280;70277;54.302;10.064;2023-12-29T10:43:46;99750.81;;;11.34;67.10
3654;BME280;70277;54.302;10.064;2023-12-29T10:46:21;99734.00;;;11.43;66.00
3654;BME280;70277;54.302;10.064;2023-12-29T10:48:48;99730.09;;;10.99;67.09
3654;BME280;70277;54.302;10.064;2023-12-29T10:51:15;99725.88;;;10.67;68.44
3654;BME280;70277;54.302;10.064;2023-12-29T10:53:54;99723.63;;;10.95;69.13
3654;BME280;70277;54.302;10.064;2023-12-29T10:56:23;99737.47;;;10.83;69.30
3654;BME280;70277;54.302;10.064;2023-12-29T10:59:03;99750.47;;;10.81;69.99
3654;BME280;70277;54.302;10.064;2023-12-29T11:01:39;99741.88;;;10.13;70.81
3654;BME280;70277;54.302;10.064;2023-12-29T11:04:06;99737.28;;;10.44;70.68
3654;BME280;70277;54.302;10.064;2023-12-29T11:06:45;99752.97;;;10.57;70.45
3654;BME280;70277;54.302;10.064;2023-12-29T11:09:27;99749.41;;;10.67;70.04
3654;BME280;70277;54.302;10.064;2023-12-29T11:11:56;99738.94;;;10.30;70.28
3654;BME280;70277;54.302;10.064;2023-12-29T11:14:23;99725.91;;;10.52;70.97
3654;BME280;70277;54.302;10.064;2023-12-29T11:16:51;99735.41;;;10.44;70.90
3654;BME280;70277;54.302;10.064;2023-12-29T11:19:18;99733.47;;;10.60;70.83
3654;BME280;70277;54.302;10.064;2023-12-29T11:21:45;99735.13;;;10.56;70.15
3654;BME280;70277;54.302;10.064;2023-12-29T11:24:13;99736.97;;;10.56;69.40
3654;BME280;70277;54.302;10.064;2023-12-29T11:26:50;99733.72;;;10.59;69.62
3654;BME280;70277;54.302;10.064;2023-12-29T11:29:17;99714.78;;;10.74;69.29
3654;BME280;70277;54.302;10.064;2023-12-29T11:31:45;99733.44;;;10.70;68.62
3654;BME280;70277;54.302;10.064;2023-12-29T11:34:49;99739.84;;;11.05;67.59
3654;BME280;70277;54.302;10.064;2023-12-29T11:42:38;99715.81;;;12.51;63.78
3654;BME280;70277;54.302;10.064;2023-12-29T11:45:35;99686.66;;;12.09;62.57
3654;BME280;70277;54.302;10.064;2023-12-29T11:48:02;99720.59;;;12.35;61.76
3654;BME280;70277;54.302;10.064;2023-12-29T11:50:34;99711.56;;;12.16;61.26
3654;BME280;70277;54.302;10.064;2023-12-29T11:53:03;99729.47;;;12.12;62.04
3654;BME280;70277;54.302;10.064;2023-12-29T11:55:35;99714.94;;;11.97;61.58
3654;BME280;70277;54.302;10.064;2023-12-29T11:58:03;99716.59;;;12.27;60.21
3654;BME280;70277;54.302;10.064;2023-12-29T12:00:44;99702.03;;;11.39;60.66
3654;BME280;70277;54.302;10.064;2023-12-29T12:03:37;99710.63;;;10.97;62.57
3654;BME280;70277;54.302;10.064;2023-12-29T12:06:04;99718.56;;;10.73;64.21
3654;BME280;70277;54.302;10.064;2023-12-29T12:08:35;99732.38;;;10.61;64.56
3654;BME280;70277;54.302;10.064;2023-12-29T12:13:55;99726.47;;;10.18;66.82
3654;BME280;70277;54.302;10.064;2023-12-29T12:19:12;99714.41;;;10.96;65.18
3654;BME280;70277;54.302;10.064;2023-12-29T12:21:40;99723.63;;;11.50;64.69
3654;BME280;70277;54.302;10.064;2023-12-29T12:24:07;99698.41;;;11.10;64.88
3654;BME280;70277;54.302;10.064;2023-12-29T12:26:34;99703.97;;;10.69;66.29
3654;BME280;70277;54.302;10.064;2023-12-29T12:29:01;99707.78;;;10.58;66.04
3654;BME280;70277;54.302;10.064;2023-12-29T12:31:28;99703.75;;;10.14;65.95
3654;BME280;70277;54.302;10.064;2023-12-29T12:33:58;99722.72;;;10.30;66.62
3654;BME280;70277;54.302;10.064;2023-12-29T12:36:26;99718.09;;;10.30;67.18
3654;BME280;70277;54.302;10.064;2023-12-29T12:38:54;99699.69;;;10.17;67.19
3654;BME280;70277;54.302;10.064;2023-12-29T12:41:21;99708.06;;;10.05;67.30
3654;BME280;70277;54.302;10.064;2023-12-29T12:44:12;99711.06;;;10.09;68.27
3654;BME280;70277;54.302;10.064;2023-12-29T12:46:51;99721.31;;;10.17;68.47
3654;BME280;70277;54.302;10.064;2023-12-29T12:49:21;99748.94;;;9.10;77.12
3654;BME280;70277;54.302;10.064;2023-12-29T12:51:48;99735.28;;;8.37;79.39
3654;BME280;70277;54.302;10.064;2023-12-29T12:54:19;99760.06;;;7.69;82.16
3654;BME280;70277;54.302;10.064;2023-12-29T12:56:46;99787.56;;;7.49;83.67
3654;BME280;70277;54.302;10.064;2023-12-29T12:59:14;99772.13;;;6.79;83.03
3654;BME280;70277;54.302;10.064;2023-12-29T13:01:42;99732.31;;;6.76;84.81
3654;BME280;70277;54.302;10.064;2023-12-29T13:04:10;99728.00;;;6.97;81.19
3654;BME280;70277;54.302;10.064;2023-12-29T13:06:42;99715.09;;;7.48;81.53
3654;BME280;70277;54.302;10.064;2023-12-29T13:09:17;99723.38;;;7.63;80.39
3654;BME280;70277;54.302;10.064;2023-12-29T13:11:46;99726.63;;;7.97;79.39
3654;BME280;70277;54.302;10.064;2023-12-29T13:14:22;99703.56;;;8.12;77.95
3654;BME280;70277;54.302;10.064;2023-12-29T13:16:49;99702.34;;;8.72;77.39
3654;BME280;70277;54.302;10.064;2023-12-29T13:19:23;99689.84;;;8.51;76.97
3654;BME280;70277;54.302;10.064;2023-12-29T13:21:53;99698.16;;;8.44;76.30
3654;BME280;70277;54.302;10.064;2023-12-29T13:24:24;99686.88;;;8.52;77.63
3654;BME280;70277;54.302;10.064;2023-12-29T13:26:58;99693.34;;;8.51;77.00
3654;BME280;70277;54.302;10.064;2023-12-29T13:29:28;99697.47;;;8.69;76.43
3654;BME280;70277;54.302;10.064;2023-12-29T13:32:03;99695.69;;;8.85;77.02
3654;BME280;70277;54.302;10.064;2023-12-29T13:34:39;99699.75;;;8.87;76.33
3654;BME280;70277;54.302;10.064;2023-12-29T13:37:17;99700.09;;;9.17;75.85